createdAt,value
2023-04-25T00:05:08.573Z,95242.59
2023-04-25T00:07:36.383Z,95239.38
2023-04-25T00:10:03.702Z,95239.09
2023-04-25T00:12:30.511Z,95239.59
2023-04-25T00:15:00.897Z,95243.63
2023-04-25T00:17:27.875Z,95244.72
2023-04-25T00:19:54.457Z,95235.56
2023-04-25T00:22:22.199Z,95239.09
2023-04-25T00:24:48.657Z,95231.44
2023-04-25T00:27:15.262Z,95228.50
2023-04-25T00:29:41.789Z,95229.91
2023-04-25T00:32:08.468Z,95232.13
2023-04-25T00:34:35.305Z,95224.38
2023-04-25T00:37:03.176Z,95228.41
2023-04-25T00:39:29.915Z,95227.88
2023-04-25T00:41:56.606Z,95232.59
2023-04-25T00:44:23.414Z,95228.97
2023-04-25T00:46:50.590Z,95226.28
2023-04-25T00:49:17.975Z,95223.66
2023-04-25T00:51:47.565Z,95222.66
2023-04-25T00:54:15.248Z,95217.59
2023-04-25T00:56:42.613Z,95213.34
2023-04-25T00:59:10.766Z,95208.50
2023-04-25T01:01:38.995Z,95206.00
2023-04-25T01:04:05.795Z,95216.78
2023-04-25T01:06:32.963Z,95230.50
2023-04-25T01:09:03.070Z,95227.28
2023-04-25T01:11:29.522Z,95218.03
2023-04-25T01:13:56.034Z,95216.84
2023-04-25T01:16:24.949Z,95216.25
2023-04-25T01:18:52.357Z,95217.19
2023-04-25T01:21:19.316Z,95221.75
2023-04-25T01:23:46.613Z,95222.75
2023-04-25T01:26:13.821Z,95228.41
2023-04-25T01:28:42.345Z,95227.00
2023-04-25T01:31:09.462Z,95226.19
2023-04-25T01:33:36.262Z,95220.97
2023-04-25T01:36:03.242Z,95222.78
2023-04-25T01:38:29.927Z,95223.88
2023-04-25T01:40:56.933Z,95223.00
2023-04-25T01:43:24.654Z,95229.22
2023-04-25T01:45:52.519Z,95228.13
2023-04-25T01:48:19.326Z,95232.16
2023-04-25T01:50:46.471Z,95225.00
2023-04-25T01:53:14.416Z,95223.41
2023-04-25T01:55:41.015Z,95226.91
2023-04-25T01:58:10.950Z,95223.59
2023-04-25T02:00:42.831Z,95225.22
2023-04-25T02:03:13.498Z,95225.72
2023-04-25T02:05:41.421Z,95220.78
2023-04-25T02:08:08.993Z,95222.41
2023-04-25T02:10:36.841Z,95223.50
2023-04-25T02:13:04.726Z,95217.56
2023-04-25T02:15:31.333Z,95210.53
2023-04-25T02:18:01.306Z,95200.16
2023-04-25T02:20:30.503Z,95206.09
2023-04-25T02:22:57.124Z,95205.88
2023-04-25T02:25:23.974Z,95207.81
2023-04-25T02:27:51.445Z,95206.69
2023-04-25T02:30:18.371Z,95208.59
2023-04-25T02:32:44.891Z,95210.53
2023-04-25T02:35:11.437Z,95209.72
2023-04-25T02:37:39.424Z,95207.91
2023-04-25T02:40:07.024Z,95206.09
2023-04-25T02:42:33.902Z,95200.44
2023-04-25T02:45:00.435Z,95205.06
2023-04-25T02:47:27.285Z,95219.47
2023-04-25T02:49:53.871Z,95207.47
2023-04-25T02:52:20.743Z,95218.56
2023-04-25T02:54:47.528Z,95213.63
2023-04-25T02:57:14.064Z,95213.34
2023-04-25T02:59:40.577Z,95208.19
2023-04-25T03:02:07.026Z,95209.50
2023-04-25T03:04:34.581Z,95210.91
2023-04-25T03:07:01.116Z,95205.78
2023-04-25T03:09:27.861Z,95209.69
2023-04-25T03:11:54.402Z,95214.03
2023-04-25T03:14:21.061Z,95212.91
2023-04-25T03:16:47.768Z,95211.81
2023-04-25T03:19:16.998Z,95216.16
2023-04-25T03:21:44.647Z,95213.44
2023-04-25T03:24:12.105Z,95224.81
2023-04-25T03:26:38.789Z,95217.47
2023-04-25T03:29:05.357Z,95210.72
2023-04-25T03:31:32.917Z,95215.53
2023-04-25T03:33:59.449Z,95212.31
2023-04-25T03:36:26.171Z,95217.47
2023-04-25T03:38:52.651Z,95210.63
2023-04-25T03:41:19.167Z,95212.03
2023-04-25T03:43:45.937Z,95216.16
2023-04-25T03:46:12.451Z,95212.31
2023-04-25T03:48:39.037Z,95205.56
2023-04-25T03:51:05.860Z,95216.44
2023-04-25T03:53:32.437Z,95213.13
2023-04-25T03:55:59.031Z,95222.91
2023-04-25T03:58:25.680Z,95225.41
2023-04-25T04:00:52.247Z,95216.75
2023-04-25T04:03:18.820Z,95215.94
2023-04-25T04:05:46.137Z,95214.84
2023-04-25T04:08:12.995Z,95214.31
2023-04-25T04:10:39.562Z,95218.34
2023-04-25T04:13:06.090Z,95219.88
2023-04-25T04:15:34.132Z,95227.00
2023-04-25T04:18:03.716Z,95230.03
2023-04-25T04:20:35.154Z,95223.28
2023-04-25T04:23:02.835Z,95221.66
2023-04-25T04:25:29.553Z,95222.19
2023-04-25T04:27:56.032Z,95216.16
2023-04-25T04:30:25.191Z,95216.66
2023-04-25T04:32:52.318Z,95221.50
2023-04-25T04:35:19.171Z,95215.97
2023-04-25T04:37:47.439Z,95223.50
2023-04-25T04:40:16.619Z,95236.28
2023-04-25T04:42:44.460Z,95229.53
2023-04-25T04:45:11.365Z,95236.50
2023-04-25T04:47:38.705Z,95243.84
2023-04-25T04:50:05.579Z,95240.81
2023-04-25T04:52:32.088Z,95244.25
2023-04-25T04:54:58.744Z,95245.75
2023-04-25T04:57:25.773Z,95249.44
2023-04-25T04:59:52.497Z,95249.53
2023-04-25T05:02:19.289Z,95254.34
2023-04-25T05:04:46.158Z,95264.06
2023-04-25T05:07:12.733Z,95267.50
2023-04-25T05:09:39.523Z,95274.84
2023-04-25T05:12:06.610Z,95275.06
2023-04-25T05:14:33.114Z,95275.00
2023-04-25T05:16:59.730Z,95273.66
2023-04-25T05:19:26.366Z,95277.72
2023-04-25T05:21:54.052Z,95282.25
2023-04-25T05:24:20.588Z,95281.97
2023-04-25T05:26:47.209Z,95272.88
2023-04-25T05:29:13.679Z,95287.41
2023-04-25T05:31:40.260Z,95283.00
2023-04-25T05:34:06.837Z,95288.13
2023-04-25T05:36:33.774Z,95294.66
2023-04-25T05:39:00.383Z,95303.16
2023-04-25T05:41:27.010Z,95301.34
2023-04-25T05:43:56.229Z,95307.78
2023-04-25T05:46:24.555Z,95302.28
2023-04-25T05:48:51.215Z,95311.53
2023-04-25T05:51:19.394Z,95309.97
2023-04-25T05:53:46.180Z,95310.44
2023-04-25T05:56:12.722Z,95316.81
2023-04-25T05:58:39.250Z,95309.78
2023-04-25T06:01:05.869Z,95316.81
2023-04-25T06:03:32.564Z,95316.69
2023-04-25T06:05:59.308Z,95322.19
2023-04-25T06:08:25.963Z,95322.81
2023-04-25T06:10:55.756Z,95319.84
2023-04-25T06:13:22.225Z,95325.31
2023-04-25T06:15:48.759Z,95318.41
2023-04-25T06:18:15.367Z,95329.69
2023-04-25T06:20:41.939Z,95325.38
2023-04-25T06:23:08.462Z,95333.09
2023-04-25T06:25:35.587Z,95323.88
2023-04-25T06:28:02.130Z,95334.28
2023-04-25T06:30:28.757Z,95326.34
2023-04-25T06:32:55.310Z,95335.44
2023-04-25T06:35:22.246Z,95333.59
2023-04-25T06:37:48.762Z,95330.97
2023-04-25T06:40:15.913Z,95335.22
2023-04-25T06:42:42.450Z,95345.75
2023-04-25T06:45:09.279Z,95344.13
2023-04-25T06:47:35.781Z,95347.16
2023-04-25T06:50:02.378Z,95348.97
2023-04-25T06:52:28.888Z,95352.56
2023-04-25T06:54:55.479Z,95346.84
2023-04-25T06:57:22.241Z,95350.59
2023-04-25T06:59:48.741Z,95361.59
2023-04-25T07:02:15.460Z,95366.94
2023-04-25T07:04:42.064Z,95369.44
2023-04-25T07:07:08.771Z,95369.97
2023-04-25T07:09:35.414Z,95366.88
2023-04-25T07:12:02.585Z,95379.81
2023-04-25T07:14:29.310Z,95378.28
2023-04-25T07:16:57.856Z,95378.72
2023-04-25T07:19:27.516Z,95375.72
2023-04-25T07:21:54.264Z,95380.25
2023-04-25T07:24:20.789Z,95385.25
2023-04-25T07:26:47.348Z,95382.91
2023-04-25T07:29:14.453Z,95387.91
2023-04-25T07:31:41.159Z,95386.81
2023-04-25T07:34:07.833Z,95391.22
2023-04-25T07:36:34.309Z,95397.66
2023-04-25T07:39:00.848Z,95405.31
2023-04-25T07:41:27.427Z,95399.44
2023-04-25T07:43:53.929Z,95405.69
2023-04-25T07:46:20.814Z,95409.94
2023-04-25T07:48:47.444Z,95412.78
2023-04-25T07:51:14.010Z,95416.53
2023-04-25T07:53:41.900Z,95416.09
2023-04-25T07:56:08.918Z,95417.69
2023-04-25T07:58:35.596Z,95420.47
2023-04-25T08:01:09.128Z,95420.03
2023-04-25T08:03:35.874Z,95413.25
2023-04-25T08:06:05.764Z,95415.09
2023-04-25T08:08:35.574Z,95422.38
2023-04-25T08:11:02.023Z,95414.81
2023-04-25T08:13:28.535Z,95412.09
2023-04-25T08:15:55.747Z,95423.19
2023-04-25T08:18:22.310Z,95430.34
2023-04-25T08:20:49.622Z,95434.38
2023-04-25T08:23:16.270Z,95435.69
2023-04-25T08:25:42.732Z,95440.16
2023-04-25T08:28:09.309Z,95435.97
2023-04-25T08:30:35.986Z,95448.88
2023-04-25T08:33:02.501Z,95450.69
2023-04-25T08:35:29.240Z,95445.84
2023-04-25T08:37:55.767Z,95445.16
2023-04-25T08:40:29.824Z,95450.41
2023-04-25T08:42:58.288Z,95458.78
2023-04-25T08:45:28.209Z,95449.47
2023-04-25T08:47:55.506Z,95448.75
2023-04-25T08:50:23.786Z,95442.19
2023-04-25T08:52:53.444Z,95446.00
2023-04-25T08:55:21.840Z,95452.69
2023-04-25T08:57:48.923Z,95464.78
2023-04-25T09:00:15.751Z,95449.34
2023-04-25T09:02:44.894Z,95446.13
2023-04-25T09:05:14.592Z,95459.34
2023-04-25T09:07:41.264Z,95451.75
2023-04-25T09:10:08.599Z,95464.03
2023-04-25T09:12:36.565Z,95458.78
2023-04-25T09:15:06.363Z,95453.63
2023-04-25T09:17:33.377Z,95453.63
2023-04-25T09:20:11.034Z,95458.38
2023-04-25T09:22:38.632Z,95464.00
2023-04-25T09:25:10.328Z,95460.06
2023-04-25T09:27:37.075Z,95479.72
2023-04-25T09:30:04.441Z,95481.72
2023-04-25T09:32:31.149Z,95488.78
2023-04-25T09:34:59.023Z,95492.72
2023-04-25T09:37:28.227Z,95480.34
2023-04-25T09:39:57.160Z,95485.81
2023-04-25T09:42:26.528Z,95480.69
2023-04-25T09:44:55.149Z,95480.28
2023-04-25T09:47:24.753Z,95483.44
2023-04-25T09:49:52.944Z,95489.63
2023-04-25T09:52:23.270Z,95494.56
2023-04-25T09:54:52.386Z,95497.25
2023-04-25T09:57:24.656Z,95496.75
2023-04-25T09:59:53.710Z,95493.50
2023-04-25T10:02:22.921Z,95506.97
2023-04-25T10:04:54.318Z,95504.91
2023-04-25T10:07:24.063Z,95523.09
2023-04-25T10:09:53.719Z,95529.06
2023-04-25T10:12:20.994Z,95530.38
2023-04-25T10:14:48.678Z,95536.78
2023-04-25T10:17:15.581Z,95541.44
2023-04-25T10:19:42.578Z,95533.59
2023-04-25T10:22:15.746Z,95538.03
2023-04-25T10:24:42.800Z,95533.16
2023-04-25T10:27:09.880Z,95535.59
2023-04-25T10:29:36.397Z,95532.81
2023-04-25T10:32:03.391Z,95534.06
2023-04-25T10:34:48.191Z,95547.41
2023-04-25T10:37:15.319Z,95546.47
2023-04-25T10:39:43.011Z,95554.03
2023-04-25T10:42:09.971Z,95562.16
2023-04-25T10:44:39.896Z,95571.63
2023-04-25T10:47:08.569Z,95557.53
2023-04-25T10:49:44.342Z,95558.75
2023-04-25T10:52:25.859Z,95555.94
2023-04-25T10:54:53.246Z,95549.91
2023-04-25T10:57:41.166Z,95546.34
2023-04-25T11:00:11.842Z,95550.69
2023-04-25T11:02:49.546Z,95534.66
2023-04-25T11:05:50.822Z,95554.41
2023-04-25T11:08:38.019Z,95556.56
2023-04-25T11:11:04.766Z,95558.50
2023-04-25T11:13:31.615Z,95555.97
2023-04-25T11:16:07.153Z,95558.78
2023-04-25T11:18:42.450Z,95568.66
2023-04-25T11:21:09.838Z,95573.19
2023-04-25T11:23:37.983Z,95573.47
2023-04-25T11:26:05.205Z,95576.69
2023-04-25T11:28:31.950Z,95583.88
2023-04-25T11:30:58.653Z,95578.03
2023-04-25T11:33:28.077Z,95580.88
2023-04-25T11:35:56.957Z,95576.44
2023-04-25T11:38:26.692Z,95580.41
2023-04-25T11:40:54.378Z,95584.22
2023-04-25T11:43:23.998Z,95581.91
2023-04-25T11:45:52.137Z,95578.06
2023-04-25T11:48:24.108Z,95580.88
2023-04-25T11:50:54.526Z,95582.28
2023-04-25T11:53:21.545Z,95574.44
2023-04-25T11:55:48.727Z,95584.16
2023-04-25T11:58:15.423Z,95577.66
2023-04-25T12:00:50.040Z,95596.16
2023-04-25T12:03:19.418Z,95586.53
2023-04-25T12:05:47.497Z,95589.03
2023-04-25T12:08:15.829Z,95582.81
2023-04-25T12:10:45.753Z,95588.53
2023-04-25T12:13:25.591Z,95583.69
2023-04-25T12:15:53.054Z,95597.75
2023-04-25T12:18:25.023Z,95593.50
2023-04-25T12:20:54.753Z,95585.94
2023-04-25T12:23:29.103Z,95585.72
2023-04-25T12:25:56.905Z,95604.72
2023-04-25T12:28:25.455Z,95591.09
2023-04-25T12:30:57.158Z,95593.00
2023-04-25T12:33:23.867Z,95589.38
2023-04-25T12:35:58.432Z,95588.84
2023-04-25T12:38:36.893Z,95594.44
2023-04-25T12:41:03.586Z,95594.16
2023-04-25T12:43:30.365Z,95594.06
2023-04-25T12:45:57.517Z,95595.75
2023-04-25T12:48:24.876Z,95595.41
2023-04-25T12:50:55.720Z,95593.63
2023-04-25T12:53:24.805Z,95599.03
2023-04-25T12:55:51.764Z,95598.78
2023-04-25T12:58:20.846Z,95600.41
2023-04-25T13:00:47.623Z,95597.72
2023-04-25T13:03:14.460Z,95597.84
2023-04-25T13:05:41.264Z,95600.94
2023-04-25T13:08:08.008Z,95599.16
2023-04-25T13:10:35.136Z,95599.63
2023-04-25T13:13:02.426Z,95598.94
2023-04-25T13:15:29.677Z,95593.38
2023-04-25T13:17:57.048Z,95588.28
2023-04-25T13:20:26.856Z,95596.28
2023-04-25T13:22:54.059Z,95597.72
2023-04-25T13:25:20.724Z,95603.63
2023-04-25T13:27:47.577Z,95613.31
2023-04-25T13:30:14.345Z,95609.91
2023-04-25T13:32:42.114Z,95616.41
2023-04-25T13:35:12.042Z,95617.09
2023-04-25T13:37:41.666Z,95619.97
2023-04-25T13:40:12.199Z,95613.13
2023-04-25T13:42:39.631Z,95606.91
2023-04-25T13:45:07.307Z,95616.25
2023-04-25T13:47:36.437Z,95637.28
2023-04-25T13:50:04.808Z,95629.19
2023-04-25T13:52:31.825Z,95618.91
2023-04-25T13:54:59.096Z,95614.09
2023-04-25T13:57:26.521Z,95610.94
2023-04-25T13:59:54.201Z,95607.13
2023-04-25T14:02:20.909Z,95603.16
2023-04-25T14:04:47.469Z,95614.50
2023-04-25T14:07:17.183Z,95598.34
2023-04-25T14:09:43.758Z,95588.69
2023-04-25T14:12:10.383Z,95597.84
2023-04-25T14:14:36.861Z,95605.75
2023-04-25T14:17:03.380Z,95604.97
2023-04-25T14:19:30.094Z,95594.88
2023-04-25T14:21:56.865Z,95604.50
2023-04-25T14:24:23.330Z,95595.31
2023-04-25T14:26:49.890Z,95599.56
2023-04-25T14:29:16.607Z,95594.88
2023-04-25T14:31:43.115Z,95598.66
2023-04-25T14:34:09.709Z,95612.06
2023-04-25T14:36:37.325Z,95606.53
2023-04-25T14:39:06.144Z,95615.75
2023-04-25T14:41:32.972Z,95613.34
2023-04-25T14:43:59.503Z,95622.41
2023-04-25T14:46:26.707Z,95622.66
2023-04-25T14:48:54.237Z,95629.59
2023-04-25T14:51:21.415Z,95626.94
2023-04-25T14:53:48.061Z,95632.03
2023-04-25T14:56:14.718Z,95637.81
2023-04-25T14:58:41.609Z,95632.25
2023-04-25T15:01:09.337Z,95637.19
2023-04-25T15:03:36.330Z,95642.75
2023-04-25T15:06:03.109Z,95633.38
2023-04-25T15:08:29.645Z,95639.75
2023-04-25T15:10:57.338Z,95637.53
2023-04-25T15:13:24.101Z,95644.91
2023-04-25T15:15:52.446Z,95650.59
2023-04-25T15:18:23.065Z,95653.28
2023-04-25T15:20:50.960Z,95648.78
2023-04-25T15:23:18.234Z,95646.09
2023-04-25T15:25:45.031Z,95652.53
2023-04-25T15:28:11.525Z,95647.38
2023-04-25T15:30:38.061Z,95645.56
2023-04-25T15:33:04.666Z,95646.63
2023-04-25T15:35:38.421Z,95653.94
2023-04-25T15:38:05.311Z,95653.47
2023-04-25T15:40:31.949Z,95651.38
2023-04-25T15:42:58.540Z,95648.81
2023-04-25T15:45:28.406Z,95649.78
2023-04-25T15:47:57.383Z,95652.84
2023-04-25T15:50:24.312Z,95649.88
2023-04-25T15:52:52.182Z,95648.69
2023-04-25T15:55:21.100Z,95648.81
2023-04-25T15:57:50.139Z,95638.06
2023-04-25T16:00:17.799Z,95646.31
2023-04-25T16:02:46.645Z,95650.63
2023-04-25T16:05:14.613Z,95655.63
2023-04-25T16:07:43.239Z,95650.16
2023-04-25T16:10:11.519Z,95648.66
2023-04-25T16:12:39.562Z,95647.81
2023-04-25T16:15:06.859Z,95657.25
2023-04-25T16:17:33.871Z,95653.94
2023-04-25T16:20:02.005Z,95647.72
2023-04-25T16:22:28.978Z,95647.53
2023-04-25T16:25:01.873Z,95657.19
2023-04-25T16:27:28.523Z,95650.00
2023-04-25T16:29:54.964Z,95645.59
2023-04-25T16:32:21.837Z,95657.97
2023-04-25T16:34:48.386Z,95662.06
2023-04-25T16:37:14.929Z,95670.00
2023-04-25T16:39:41.554Z,95671.34
2023-04-25T16:42:08.045Z,95669.66
2023-04-25T16:44:35.282Z,95680.13
2023-04-25T16:47:02.537Z,95679.03
2023-04-25T16:49:29.253Z,95679.13
2023-04-25T16:51:55.831Z,95676.91
2023-04-25T16:54:22.397Z,95678.19
2023-04-25T16:56:48.942Z,95684.16
2023-04-25T16:59:15.499Z,95687.78
2023-04-25T17:01:43.087Z,95682.63
2023-04-25T17:04:09.628Z,95687.72
2023-04-25T17:06:36.305Z,95691.25
2023-04-25T17:09:02.931Z,95691.66
2023-04-25T17:57:28.446Z,95714.88
2023-04-25T17:59:57.729Z,95727.19
2023-04-25T18:02:27.690Z,95722.72
2023-04-25T18:04:56.497Z,95728.53
2023-04-25T18:07:23.517Z,95731.31
2023-04-25T18:09:49.988Z,95738.88
2023-04-25T18:12:18.331Z,95740.34
2023-04-25T18:14:45.768Z,95738.56
2023-04-25T18:17:12.384Z,95741.06
2023-04-25T18:19:38.916Z,95747.69
2023-04-25T18:22:17.475Z,95747.88
2023-04-25T18:24:48.508Z,95754.47
2023-04-25T18:27:22.096Z,95750.19
2023-04-25T18:29:53.259Z,95759.53
2023-04-25T18:32:26.379Z,95766.13
2023-04-25T18:34:56.626Z,95770.47
2023-04-25T18:37:23.395Z,95771.34
2023-04-25T18:39:56.049Z,95765.50
2023-04-25T18:42:24.199Z,95773.19
2023-04-25T18:44:51.484Z,95782.44
2023-04-25T18:47:18.316Z,95781.41
2023-04-25T18:49:45.855Z,95783.59
2023-04-25T18:52:15.104Z,95787.16
2023-04-25T18:54:42.514Z,95788.03
2023-04-25T18:57:09.452Z,95801.66
2023-04-25T18:59:36.120Z,95812.56
2023-04-25T19:02:03.106Z,95806.66
2023-04-25T19:04:29.883Z,95815.94
2023-04-25T19:06:56.825Z,95820.84
2023-04-25T19:09:23.397Z,95818.69
2023-04-25T19:11:49.905Z,95815.44
2023-04-25T19:14:16.446Z,95816.84
2023-04-25T19:16:43.016Z,95831.78
2023-04-25T19:19:09.795Z,95829.06
2023-04-25T19:21:36.614Z,95822.63
2023-04-25T19:24:05.204Z,95824.34
2023-04-25T19:26:32.150Z,95826.56
2023-04-25T19:29:17.154Z,95830.88
2023-04-25T19:31:47.378Z,95842.00
2023-04-25T19:34:16.252Z,95842.06
2023-04-25T19:36:43.955Z,95845.31
2023-04-25T19:39:10.820Z,95838.00
2023-04-25T19:41:39.155Z,95840.75
2023-04-25T19:44:08.439Z,95837.81
2023-04-25T19:46:36.311Z,95841.34
2023-04-25T19:49:05.379Z,95840.00
2023-04-25T19:51:33.986Z,95835.38
2023-04-25T19:54:00.761Z,95834.78
2023-04-25T19:56:27.320Z,95824.72
2023-04-25T19:58:54.098Z,95834.22
2023-04-25T20:01:22.522Z,95833.97
2023-04-25T20:03:51.807Z,95828.28
2023-04-25T20:06:18.834Z,95831.31
2023-04-25T20:08:46.989Z,95834.84
2023-04-25T20:11:13.745Z,95836.50
2023-04-25T20:13:40.432Z,95833.03
2023-04-25T20:19:06.007Z,95840.19
2023-04-25T20:21:35.284Z,95842.09
2023-04-25T20:24:01.990Z,95844.28
2023-04-25T20:26:29.289Z,95846.97
2023-04-25T20:28:55.816Z,95851.31
2023-04-25T20:31:23.708Z,95854.31
2023-04-25T20:33:50.349Z,95858.38
2023-04-25T20:36:21.573Z,95858.09
2023-04-25T20:38:48.168Z,95864.31
2023-04-25T20:41:15.246Z,95869.72
2023-04-25T20:43:42.160Z,95857.81
2023-04-25T20:46:09.046Z,95858.63
2023-04-25T20:48:35.830Z,95860.81
2023-04-25T20:51:02.554Z,95856.75
2023-04-25T20:53:28.993Z,95854.31
2023-04-25T20:55:55.491Z,95851.88
2023-04-25T20:58:21.974Z,95845.63
2023-04-25T21:00:48.964Z,95849.44
2023-04-25T21:03:16.102Z,95852.94
2023-04-25T21:05:42.713Z,95851.31
2023-04-25T21:08:09.489Z,95849.41
2023-04-25T21:10:37.399Z,95845.63
2023-04-25T21:13:04.196Z,95851.34
2023-04-25T21:15:30.679Z,95853.75
2023-04-25T21:17:57.468Z,95857.56
2023-04-25T21:20:24.179Z,95858.66
2023-04-25T21:22:53.851Z,95857.84
2023-04-25T21:25:25.497Z,95861.59
2023-04-25T21:27:53.116Z,95865.13
2023-04-25T21:30:23.374Z,95857.00
2023-04-25T21:32:51.439Z,95867.03
2023-04-25T21:35:19.675Z,95863.78
2023-04-25T21:37:47.018Z,95855.66
2023-04-25T21:40:14.465Z,95857.00
2023-04-25T21:42:42.359Z,95852.94
2023-04-25T21:45:10.335Z,95854.03
2023-04-25T21:47:36.995Z,95859.44
2023-04-25T21:50:22.326Z,95857.00
2023-04-25T21:52:49.387Z,95860.00
2023-04-25T21:55:16.956Z,95864.06
2023-04-25T21:57:43.444Z,95871.91
2023-04-25T22:00:27.390Z,95861.88
2023-04-25T22:02:57.934Z,95864.59
2023-04-25T22:05:26.510Z,95871.09
2023-04-25T22:07:56.921Z,95870.81
2023-04-25T22:10:24.142Z,95879.47
2023-04-25T22:12:51.101Z,95881.06
2023-04-25T22:15:19.401Z,95891.91
2023-04-25T22:17:47.107Z,95886.44
2023-04-25T22:20:14.361Z,95890.75
2023-04-25T22:22:41.552Z,95892.66
2023-04-25T22:25:08.778Z,95895.88
2023-04-25T22:27:36.778Z,95898.28
2023-04-25T22:30:04.770Z,95904.22
2023-04-25T22:32:31.509Z,95891.78
2023-04-25T22:34:58.043Z,95903.44
2023-04-25T22:37:24.577Z,95911.28
2023-04-25T22:39:51.337Z,95910.22
2023-04-25T22:42:19.340Z,95905.91
2023-04-25T22:44:46.250Z,95913.47
2023-04-25T22:47:15.115Z,95906.44
2023-04-25T22:49:42.095Z,95910.50
2023-04-25T22:52:10.310Z,95904.00
2023-04-25T22:54:37.456Z,95910.19
2023-04-25T22:57:06.975Z,95910.72
2023-04-25T22:59:36.121Z,95909.59
2023-04-25T23:02:03.741Z,95911.22
2023-04-25T23:04:30.535Z,95907.44
2023-04-25T23:06:57.241Z,95918.00
2023-04-25T23:09:23.766Z,95906.38
2023-04-25T23:11:53.288Z,95908.53
2023-04-25T23:14:21.224Z,95911.22
2023-04-25T23:16:47.739Z,95910.66
2023-04-25T23:19:14.347Z,95916.59
2023-04-25T23:21:40.799Z,95917.63
2023-04-25T23:24:07.555Z,95918.69
2023-04-25T23:26:34.542Z,95916.78
2023-04-25T23:29:02.114Z,95931.06
2023-04-25T23:31:29.467Z,95921.28
2023-04-25T23:33:56.012Z,95925.06
2023-04-25T23:36:22.461Z,95928.84
2023-04-25T23:38:50.789Z,95923.41
2023-04-25T23:41:18.185Z,95924.19
2023-04-25T23:43:44.686Z,95930.63
2023-04-25T23:46:12.551Z,95927.34
2023-04-25T23:48:39.166Z,95924.84
2023-04-25T23:51:05.727Z,95941.28
2023-04-25T23:53:32.192Z,95942.28
2023-04-25T23:55:58.678Z,95947.06
2023-04-25T23:58:25.252Z,95950.22
